VGTJ weather

Tejgaon Airport
Dhaka, Dhaka Division, Bangladesh

Public forecast

Using degrees Celsius for public forecast. Weather courtesy of forecast.io.

METAR (pilot weather report)

Closest report is Hazrat Shahjalal International Airport, 4.0 nm (7.3 km) NNE. Retrieved 2019/08/21 02:30 UTC (0 seconds ago):

VGHS 210230Z 00000KT 3500 HZ SCT015 BKN100 32/27 Q1004 NOSIG

TAF (pilot weather forecast)

Forecast is more than 12 hours old.

Closest forecast is Hazrat Shahjalal International Airport, 4.0 nm (7.3 km) NNE. Retrieved 2019/08/20 00:00 UTC (1 day ago):

TAF VGHS 202300Z 2100/2206 20008KT 3500 HZ SCT015 BKN100 TEMPO 2100/2112 18025KT 2000 RA/TSRA BKN007 FEW025CB OVC090 BECMG 2112/2114 24006KT 4000 HZ SCT012 BKN100 BECMG 2118/2120 16007KT 3500 HZ SCT015 BKN100 TEMPO 2120/2206 18025KT 2000 RA/TSRA BKN007 FEW025CB OVC090